ANZ620 NZQN-NZAA
Flight info
| Callsign | ANZ620 |
|---|---|
| Flight time | 1h 26m |
| Altitude | 37000 |
| Route | SAVLA Y569 LOVTA Y655 POKOM Q277 DAVEE |
| Aircraft | A320/M-SDE3FGHIRWY/LB1 |
Departure
| Time | 2026-05-04 01:09 |
|---|---|
| Airport | Queenstown Airport (NZQN) |
Arrival
| Time | 2026-05-04 02:36 |
|---|---|
| Airport | Auckland International Airport (NZAA) |
| Time | Latitude | Longitude | Altitude | Speed | Heading |
|---|---|---|---|---|---|
| 2026-05-04 00:46 | -45.02126 | 168.74011 | 1164 ft | 0 kts | 206° |
| 2026-05-04 01:03 | -45.02113 | 168.74019 | 1162 ft | 3 kts | 200° |
| 2026-05-04 01:03 | -45.02094 | 168.74027 | 1164 ft | 3 kts | 184° |
| 2026-05-04 01:03 | -45.02075 | 168.74026 | 1163 ft | 3 kts | 161° |
| 2026-05-04 01:03 | -45.02058 | 168.74014 | 1164 ft | 3 kts | 128° |
| 2026-05-04 01:04 | -45.02050 | 168.73995 | 1164 ft | 1 kts | 100° |
| 2026-05-04 01:04 | -45.02047 | 168.73970 | 1163 ft | 3 kts | 95° |
| 2026-05-04 01:04 | -45.02046 | 168.73942 | 1162 ft | 3 kts | 91° |
| 2026-05-04 01:04 | -45.02046 | 168.73926 | 1161 ft | 0 kts | 93° |
| 2026-05-04 01:06 | -45.02047 | 168.73944 | 1162 ft | 5 kts | 93° |
| 2026-05-04 01:06 | -45.02031 | 168.74000 | 1165 ft | 8 kts | 40° |
| 2026-05-04 01:06 | -45.01979 | 168.74035 | 1165 ft | 9 kts | 21° |
| 2026-05-04 01:06 | -45.01935 | 168.74010 | 1164 ft | 8 kts | 286° |
| 2026-05-04 01:07 | -45.01956 | 168.73852 | 1165 ft | 25 kts | 258° |
| 2026-05-04 01:07 | -45.01990 | 168.73623 | 1167 ft | 20 kts | 257° |
| 2026-05-04 01:07 | -45.02015 | 168.73538 | 1163 ft | 9 kts | 259° |
| 2026-05-04 01:07 | -45.02001 | 168.73532 | 1162 ft | 1 kts | 70° |
| 2026-05-04 01:08 | -45.01999 | 168.73569 | 1163 ft | 1 kts | 76° |
| 2026-05-04 01:08 | -45.01995 | 168.73588 | 1167 ft | 2 kts | 76° |
| 2026-05-04 01:08 | -45.01988 | 168.73633 | 1167 ft | 30 kts | 76° |
| 2026-05-04 01:08 | -45.01878 | 168.74345 | 1168 ft | 114 kts | 77° |
| 2026-05-04 01:09 | -45.01671 | 168.75718 | 1356 ft | 158 kts | 78° |
| 2026-05-04 01:09 | -45.01434 | 168.77262 | 2141 ft | 165 kts | 77° |
| 2026-05-04 01:09 | -45.01185 | 168.78880 | 2913 ft | 171 kts | 76° |
| 2026-05-04 01:09 | -45.00927 | 168.80512 | 3935 ft | 168 kts | 76° |
| 2026-05-04 01:10 | -45.00657 | 168.82149 | 4772 ft | 174 kts | 71° |
| 2026-05-04 01:10 | -45.00034 | 168.83603 | 5573 ft | 175 kts | 39° |
| 2026-05-04 01:10 | -44.99013 | 168.84501 | 6397 ft | 173 kts | 14° |
| 2026-05-04 01:10 | -44.97841 | 168.84715 | 7227 ft | 169 kts | 351° |
| 2026-05-04 01:11 | -44.96727 | 168.84246 | 8012 ft | 168 kts | 328° |
| 2026-05-04 01:11 | -44.95826 | 168.83218 | 8788 ft | 168 kts | 307° |
| 2026-05-04 01:11 | -44.95266 | 168.81781 | 9591 ft | 167 kts | 287° |
| 2026-05-04 01:11 | -44.95083 | 168.80120 | 9989 ft | 181 kts | 278° |
| 2026-05-04 01:12 | -44.94657 | 168.78325 | 10018 ft | 212 kts | 308° |
| 2026-05-04 01:12 | -44.93340 | 168.77238 | 10404 ft | 235 kts | 348° |
| 2026-05-04 01:12 | -44.91653 | 168.77509 | 10657 ft | 266 kts | 16° |
| 2026-05-04 01:12 | -44.89910 | 168.78743 | 10930 ft | 293 kts | 25° |
| 2026-05-04 01:13 | -44.88057 | 168.80212 | 11164 ft | 317 kts | 26° |
| 2026-05-04 01:13 | -44.86068 | 168.81829 | 11340 ft | 341 kts | 27° |
| 2026-05-04 01:13 | -44.83963 | 168.83558 | 11699 ft | 356 kts | 27° |
| 2026-05-04 01:13 | -44.81809 | 168.85330 | 12318 ft | 361 kts | 27° |
| 2026-05-04 01:14 | -44.79627 | 168.87120 | 12992 ft | 365 kts | 27° |
| 2026-05-04 01:14 | -44.77421 | 168.88928 | 13667 ft | 369 kts | 27° |
| 2026-05-04 01:14 | -44.75185 | 168.90753 | 14348 ft | 373 kts | 27° |
| 2026-05-04 01:14 | -44.72935 | 168.92586 | 14920 ft | 376 kts | 27° |
| 2026-05-04 01:15 | -44.70659 | 168.94438 | 15486 ft | 379 kts | 27° |
| 2026-05-04 01:15 | -44.68365 | 168.96303 | 16057 ft | 382 kts | 27° |
| 2026-05-04 01:15 | -44.66056 | 168.98179 | 16610 ft | 385 kts | 27° |
| 2026-05-04 01:15 | -44.63720 | 169.00072 | 17169 ft | 388 kts | 27° |
| 2026-05-04 01:16 | -44.61373 | 169.01969 | 17746 ft | 391 kts | 27° |
| 2026-05-04 01:16 | -44.59005 | 169.03882 | 18310 ft | 394 kts | 27° |
| 2026-05-04 01:16 | -44.56619 | 169.05812 | 18884 ft | 398 kts | 27° |
| 2026-05-04 01:16 | -44.54211 | 169.07758 | 19379 ft | 401 kts | 27° |
| 2026-05-04 01:17 | -44.51781 | 169.09719 | 19876 ft | 404 kts | 27° |
| 2026-05-04 01:17 | -44.49365 | 169.11666 | 20373 ft | 407 kts | 27° |
| 2026-05-04 01:17 | -44.46906 | 169.13643 | 20886 ft | 410 kts | 27° |
| 2026-05-04 01:17 | -44.44424 | 169.15635 | 21360 ft | 413 kts | 27° |
| 2026-05-04 01:18 | -44.41925 | 169.17640 | 21831 ft | 415 kts | 27° |
| 2026-05-04 01:18 | -44.39412 | 169.19659 | 22286 ft | 418 kts | 27° |
| 2026-05-04 01:18 | -44.36883 | 169.21690 | 22738 ft | 421 kts | 27° |
| 2026-05-04 01:18 | -44.34332 | 169.23736 | 23196 ft | 424 kts | 27° |
| 2026-05-04 01:19 | -44.31763 | 169.25792 | 23639 ft | 427 kts | 27° |
| 2026-05-04 01:19 | -44.29177 | 169.27858 | 24074 ft | 430 kts | 27° |
| 2026-05-04 01:19 | -44.26579 | 169.29935 | 24437 ft | 432 kts | 27° |
| 2026-05-04 01:19 | -44.23963 | 169.32027 | 24805 ft | 435 kts | 27° |
| 2026-05-04 01:20 | -44.21329 | 169.34132 | 25177 ft | 437 kts | 27° |
| 2026-05-04 01:20 | -44.18677 | 169.36245 | 25537 ft | 440 kts | 27° |
| 2026-05-04 01:20 | -44.16009 | 169.38365 | 25887 ft | 442 kts | 27° |
| 2026-05-04 01:20 | -44.13327 | 169.40490 | 26235 ft | 444 kts | 27° |
| 2026-05-04 01:21 | -44.10634 | 169.42617 | 26590 ft | 447 kts | 27° |
| 2026-05-04 01:21 | -44.07916 | 169.44765 | 26942 ft | 449 kts | 27° |
| 2026-05-04 01:21 | -44.05195 | 169.46918 | 27290 ft | 452 kts | 27° |
| 2026-05-04 01:21 | -44.02458 | 169.49085 | 27651 ft | 454 kts | 28° |
| 2026-05-04 01:22 | -43.99706 | 169.51262 | 27999 ft | 457 kts | 28° |
| 2026-05-04 01:22 | -43.96936 | 169.53454 | 28361 ft | 459 kts | 28° |
| 2026-05-04 01:22 | -43.94152 | 169.55653 | 28709 ft | 461 kts | 28° |
| 2026-05-04 01:22 | -43.91359 | 169.57854 | 29113 ft | 462 kts | 28° |
| 2026-05-04 01:23 | -43.89515 | 169.59302 | 29435 ft | 461 kts | 28° |
| 2026-05-04 01:23 | -43.85783 | 169.62232 | 30090 ft | 460 kts | 28° |
| 2026-05-04 01:23 | -43.83008 | 169.64413 | 30580 ft | 459 kts | 28° |
| 2026-05-04 01:23 | -43.80262 | 169.66569 | 30998 ft | 458 kts | 28° |
| 2026-05-04 01:24 | -43.77491 | 169.68740 | 31425 ft | 457 kts | 28° |
| 2026-05-04 01:24 | -43.74726 | 169.70900 | 31856 ft | 456 kts | 28° |
| 2026-05-04 01:24 | -43.71962 | 169.73058 | 32292 ft | 455 kts | 27° |
| 2026-05-04 01:24 | -43.70141 | 169.74480 | 32575 ft | 454 kts | 27° |
| 2026-05-04 01:25 | -43.67395 | 169.76625 | 33000 ft | 453 kts | 27° |
| 2026-05-04 01:25 | -43.64651 | 169.78768 | 33440 ft | 452 kts | 27° |
| 2026-05-04 01:25 | -43.61913 | 169.80900 | 33872 ft | 451 kts | 27° |
| 2026-05-04 01:25 | -43.59184 | 169.83015 | 34302 ft | 450 kts | 27° |
| 2026-05-04 01:26 | -43.56449 | 169.85129 | 34717 ft | 448 kts | 27° |
| 2026-05-04 01:26 | -43.53734 | 169.87233 | 35062 ft | 448 kts | 27° |
| 2026-05-04 01:26 | -43.51017 | 169.89343 | 35386 ft | 448 kts | 27° |
| 2026-05-04 01:26 | -43.48362 | 169.91587 | 35696 ft | 449 kts | 34° |
| 2026-05-04 01:27 | -43.45926 | 169.94295 | 35988 ft | 450 kts | 39° |
| 2026-05-04 01:27 | -43.43557 | 169.97079 | 36292 ft | 450 kts | 39° |
| 2026-05-04 01:27 | -43.41167 | 169.99881 | 36590 ft | 449 kts | 38° |
| 2026-05-04 01:27 | -43.38815 | 170.02623 | 36878 ft | 449 kts | 38° |
| 2026-05-04 01:28 | -43.36429 | 170.05399 | 37160 ft | 449 kts | 38° |
| 2026-05-04 01:28 | -43.34048 | 170.08165 | 37433 ft | 449 kts | 38° |
| 2026-05-04 01:28 | -43.31654 | 170.10941 | 37534 ft | 452 kts | 38° |
| 2026-05-04 01:29 | -43.26800 | 170.16564 | 37542 ft | 458 kts | 38° |
| 2026-05-04 01:29 | -43.21928 | 170.22225 | 37545 ft | 459 kts | 39° |
| 2026-05-04 01:30 | -43.17033 | 170.27884 | 37547 ft | 459 kts | 38° |
| 2026-05-04 01:30 | -43.12170 | 170.33481 | 37551 ft | 459 kts | 38° |
| 2026-05-04 01:31 | -43.07277 | 170.39107 | 37554 ft | 459 kts | 38° |
| 2026-05-04 01:31 | -43.02366 | 170.44744 | 37556 ft | 460 kts | 39° |
| 2026-05-04 01:32 | -42.97474 | 170.50357 | 37554 ft | 459 kts | 39° |
| 2026-05-04 01:32 | -42.92609 | 170.55917 | 37559 ft | 459 kts | 39° |
| 2026-05-04 01:33 | -42.87706 | 170.61507 | 37560 ft | 459 kts | 39° |
| 2026-05-04 01:33 | -42.82804 | 170.67084 | 37563 ft | 459 kts | 39° |
| 2026-05-04 01:34 | -42.77889 | 170.72655 | 37560 ft | 459 kts | 39° |
| 2026-05-04 01:34 | -42.72985 | 170.78216 | 37565 ft | 459 kts | 39° |
| 2026-05-04 01:35 | -42.68073 | 170.83778 | 37569 ft | 459 kts | 39° |
| 2026-05-04 01:35 | -42.63182 | 170.89292 | 37569 ft | 459 kts | 39° |
| 2026-05-04 01:36 | -42.58261 | 170.94823 | 37570 ft | 459 kts | 39° |
| 2026-05-04 01:36 | -42.53339 | 171.00351 | 37572 ft | 459 kts | 39° |
| 2026-05-04 01:37 | -42.48424 | 171.05879 | 37574 ft | 459 kts | 39° |
| 2026-05-04 01:37 | -42.43507 | 171.11386 | 37575 ft | 459 kts | 39° |
| 2026-05-04 01:38 | -42.38587 | 171.16889 | 37575 ft | 458 kts | 39° |
| 2026-05-04 01:38 | -42.33667 | 171.22380 | 37568 ft | 458 kts | 39° |
| 2026-05-04 01:39 | -42.28764 | 171.27820 | 37570 ft | 458 kts | 39° |
| 2026-05-04 01:39 | -42.23840 | 171.33282 | 37564 ft | 458 kts | 39° |
| 2026-05-04 01:40 | -42.18916 | 171.38730 | 37562 ft | 457 kts | 39° |
| 2026-05-04 01:40 | -42.13986 | 171.44166 | 37562 ft | 458 kts | 39° |
| 2026-05-04 01:41 | -42.09058 | 171.49594 | 37560 ft | 458 kts | 39° |
| 2026-05-04 01:41 | -42.04125 | 171.55026 | 37556 ft | 457 kts | 39° |
| 2026-05-04 01:42 | -41.99218 | 171.60423 | 37550 ft | 457 kts | 39° |
| 2026-05-04 01:42 | -41.94387 | 171.66012 | 37548 ft | 457 kts | 43° |
| 2026-05-04 01:43 | -41.89728 | 171.71816 | 37546 ft | 457 kts | 43° |
| 2026-05-04 01:43 | -41.85101 | 171.77589 | 37550 ft | 457 kts | 43° |
| 2026-05-04 01:44 | -41.80396 | 171.83322 | 37551 ft | 457 kts | 42° |
| 2026-05-04 01:44 | -41.75665 | 171.89007 | 37552 ft | 456 kts | 42° |
| 2026-05-04 01:45 | -41.70972 | 171.94660 | 37550 ft | 456 kts | 43° |
| 2026-05-04 01:45 | -41.63919 | 172.03174 | 37548 ft | 455 kts | 43° |
| 2026-05-04 01:46 | -41.59211 | 172.08845 | 37544 ft | 455 kts | 42° |
| 2026-05-04 01:46 | -41.54496 | 172.14495 | 37541 ft | 455 kts | 42° |
| 2026-05-04 01:47 | -41.49781 | 172.20130 | 37537 ft | 455 kts | 42° |
| 2026-05-04 01:47 | -41.45067 | 172.25764 | 37532 ft | 455 kts | 42° |
| 2026-05-04 01:48 | -41.40351 | 172.31391 | 37525 ft | 455 kts | 42° |
| 2026-05-04 01:48 | -41.35623 | 172.37011 | 37519 ft | 456 kts | 42° |
| 2026-05-04 01:49 | -41.30886 | 172.42633 | 37513 ft | 456 kts | 42° |
| 2026-05-04 01:49 | -41.26144 | 172.48260 | 37514 ft | 457 kts | 42° |
| 2026-05-04 01:50 | -41.21400 | 172.53876 | 37519 ft | 457 kts | 42° |
| 2026-05-04 01:50 | -41.16674 | 172.59453 | 37518 ft | 457 kts | 41° |
| 2026-05-04 01:51 | -41.11918 | 172.65053 | 37521 ft | 456 kts | 41° |
| 2026-05-04 01:51 | -41.07163 | 172.70649 | 37519 ft | 456 kts | 41° |
| 2026-05-04 01:52 | -41.02407 | 172.76225 | 37522 ft | 456 kts | 41° |
| 2026-05-04 01:52 | -40.97657 | 172.81778 | 37525 ft | 455 kts | 41° |
| 2026-05-04 01:53 | -40.92945 | 172.87294 | 37522 ft | 455 kts | 41° |
| 2026-05-04 01:53 | -40.88202 | 172.92837 | 37529 ft | 454 kts | 41° |
| 2026-05-04 01:54 | -40.83457 | 172.98351 | 37534 ft | 453 kts | 41° |
| 2026-05-04 01:54 | -40.78721 | 173.03843 | 37533 ft | 453 kts | 41° |
| 2026-05-04 01:55 | -40.73984 | 173.09326 | 37531 ft | 453 kts | 41° |
| 2026-05-04 01:55 | -40.69284 | 173.14773 | 37532 ft | 453 kts | 41° |
| 2026-05-04 01:56 | -40.64545 | 173.20243 | 37533 ft | 453 kts | 41° |
| 2026-05-04 01:56 | -40.59802 | 173.25701 | 37534 ft | 453 kts | 41° |
| 2026-05-04 01:57 | -40.55053 | 173.31166 | 37533 ft | 453 kts | 41° |
| 2026-05-04 01:57 | -40.50301 | 173.36618 | 37534 ft | 453 kts | 41° |
| 2026-05-04 01:58 | -40.45551 | 173.42060 | 37534 ft | 453 kts | 41° |
| 2026-05-04 01:58 | -40.40793 | 173.47509 | 37536 ft | 454 kts | 41° |
| 2026-05-04 01:59 | -40.36019 | 173.52945 | 37542 ft | 454 kts | 40° |
| 2026-05-04 01:59 | -40.31269 | 173.58329 | 37542 ft | 454 kts | 40° |
| 2026-05-04 02:00 | -40.26491 | 173.63751 | 37545 ft | 454 kts | 41° |
| 2026-05-04 02:00 | -40.21721 | 173.69164 | 37546 ft | 454 kts | 40° |
| 2026-05-04 02:01 | -40.16941 | 173.74567 | 37550 ft | 454 kts | 40° |
| 2026-05-04 02:01 | -40.12162 | 173.79951 | 37553 ft | 453 kts | 40° |
| 2026-05-04 02:02 | -40.07381 | 173.85341 | 37556 ft | 453 kts | 40° |
| 2026-05-04 02:02 | -40.02622 | 173.90687 | 37551 ft | 453 kts | 40° |
| 2026-05-04 02:03 | -39.97831 | 173.96044 | 37558 ft | 454 kts | 40° |
| 2026-05-04 02:03 | -39.93042 | 174.01403 | 37567 ft | 454 kts | 40° |
| 2026-05-04 02:04 | -39.88249 | 174.06760 | 37568 ft | 454 kts | 40° |
| 2026-05-04 02:04 | -39.83483 | 174.12073 | 37568 ft | 453 kts | 40° |
| 2026-05-04 02:05 | -39.78694 | 174.17408 | 37572 ft | 453 kts | 40° |
| 2026-05-04 02:05 | -39.73885 | 174.22737 | 37571 ft | 453 kts | 40° |
| 2026-05-04 02:06 | -39.69091 | 174.28046 | 37572 ft | 453 kts | 40° |
| 2026-05-04 02:06 | -39.64317 | 174.33339 | 37572 ft | 452 kts | 40° |
| 2026-05-04 02:07 | -39.59537 | 174.38621 | 37572 ft | 452 kts | 40° |
| 2026-05-04 02:07 | -39.54748 | 174.43891 | 37569 ft | 452 kts | 40° |
| 2026-05-04 02:08 | -39.49675 | 174.48679 | 37569 ft | 451 kts | 26° |
| 2026-05-04 02:08 | -39.43749 | 174.51194 | 37567 ft | 449 kts | 8° |
| 2026-05-04 02:09 | -39.37566 | 174.52367 | 37563 ft | 449 kts | 8° |
| 2026-05-04 02:09 | -39.31374 | 174.53563 | 37566 ft | 450 kts | 8° |
| 2026-05-04 02:10 | -39.25178 | 174.54760 | 37566 ft | 450 kts | 8° |
| 2026-05-04 02:10 | -39.19017 | 174.55933 | 37568 ft | 450 kts | 8° |
| 2026-05-04 02:11 | -39.12811 | 174.57108 | 37568 ft | 450 kts | 8° |
| 2026-05-04 02:11 | -39.06608 | 174.58286 | 37572 ft | 451 kts | 8° |
| 2026-05-04 02:12 | -39.00393 | 174.59465 | 37575 ft | 451 kts | 8° |
| 2026-05-04 02:12 | -38.94190 | 174.60642 | 37582 ft | 451 kts | 8° |
| 2026-05-04 02:13 | -38.89032 | 174.61628 | 37579 ft | 451 kts | 8° |
| 2026-05-04 02:13 | -38.81785 | 174.62996 | 37579 ft | 450 kts | 8° |
| 2026-05-04 02:14 | -38.75610 | 174.64157 | 37383 ft | 450 kts | 8° |
| 2026-05-04 02:14 | -38.73516 | 174.64554 | 37204 ft | 450 kts | 8° |
| 2026-05-04 02:14 | -38.70424 | 174.65138 | 36711 ft | 450 kts | 8° |
| 2026-05-04 02:15 | -38.67351 | 174.65716 | 35992 ft | 453 kts | 8° |
| 2026-05-04 02:15 | -38.64218 | 174.66305 | 35213 ft | 457 kts | 8° |
| 2026-05-04 02:15 | -38.61042 | 174.66899 | 34343 ft | 462 kts | 8° |
| 2026-05-04 02:15 | -38.57882 | 174.67489 | 33428 ft | 455 kts | 8° |
| 2026-05-04 02:16 | -38.54781 | 174.68070 | 32557 ft | 446 kts | 8° |
| 2026-05-04 02:16 | -38.51730 | 174.68642 | 31654 ft | 440 kts | 9° |
| 2026-05-04 02:16 | -38.49241 | 174.69110 | 30963 ft | 434 kts | 9° |
| 2026-05-04 02:16 | -38.46476 | 174.69631 | 29996 ft | 429 kts | 9° |
| 2026-05-04 02:17 | -38.43562 | 174.70184 | 29415 ft | 419 kts | 9° |
| 2026-05-04 02:17 | -38.40674 | 174.70731 | 28827 ft | 419 kts | 9° |
| 2026-05-04 02:17 | -38.37793 | 174.71269 | 28229 ft | 417 kts | 8° |
| 2026-05-04 02:17 | -38.34932 | 174.71801 | 27631 ft | 415 kts | 8° |
| 2026-05-04 02:18 | -38.32080 | 174.72332 | 27036 ft | 413 kts | 8° |
| 2026-05-04 02:18 | -38.29241 | 174.72855 | 26446 ft | 411 kts | 8° |
| 2026-05-04 02:18 | -38.26423 | 174.73378 | 25862 ft | 409 kts | 8° |
| 2026-05-04 02:18 | -38.23600 | 174.73904 | 25273 ft | 408 kts | 8° |
| 2026-05-04 02:19 | -38.20799 | 174.74424 | 24690 ft | 406 kts | 8° |
| 2026-05-04 02:19 | -38.18001 | 174.74942 | 24099 ft | 405 kts | 8° |
| 2026-05-04 02:19 | -38.15252 | 174.75454 | 23478 ft | 403 kts | 8° |
| 2026-05-04 02:19 | -38.12488 | 174.75967 | 22912 ft | 399 kts | 8° |
| 2026-05-04 02:20 | -38.09746 | 174.76473 | 22376 ft | 396 kts | 8° |
| 2026-05-04 02:20 | -38.07031 | 174.76972 | 21839 ft | 393 kts | 8° |
| 2026-05-04 02:20 | -38.04338 | 174.77469 | 21343 ft | 390 kts | 8° |
| 2026-05-04 02:20 | -38.01661 | 174.77963 | 20834 ft | 387 kts | 8° |
| 2026-05-04 02:21 | -37.99016 | 174.78451 | 20343 ft | 383 kts | 8° |
| 2026-05-04 02:21 | -37.96378 | 174.78940 | 19858 ft | 380 kts | 9° |
| 2026-05-04 02:21 | -37.93775 | 174.79421 | 19362 ft | 377 kts | 8° |
| 2026-05-04 02:21 | -37.91156 | 174.79590 | 18444 ft | 376 kts | 356° |
| 2026-05-04 02:22 | -37.88572 | 174.79282 | 17444 ft | 372 kts | 355° |
| 2026-05-04 02:22 | -37.86050 | 174.78961 | 16885 ft | 356 kts | 355° |
| 2026-05-04 02:22 | -37.83587 | 174.78641 | 16377 ft | 355 kts | 355° |
| 2026-05-04 02:22 | -37.81135 | 174.78323 | 15848 ft | 354 kts | 355° |
| 2026-05-04 02:23 | -37.78722 | 174.78012 | 15330 ft | 352 kts | 355° |
| 2026-05-04 02:23 | -37.76286 | 174.77701 | 14793 ft | 351 kts | 355° |
| 2026-05-04 02:23 | -37.73859 | 174.77391 | 14246 ft | 351 kts | 355° |
| 2026-05-04 02:23 | -37.71434 | 174.77081 | 13612 ft | 350 kts | 355° |
| 2026-05-04 02:24 | -37.68978 | 174.76770 | 12680 ft | 359 kts | 355° |
| 2026-05-04 02:24 | -37.66502 | 174.76460 | 12064 ft | 350 kts | 355° |
| 2026-05-04 02:24 | -37.64091 | 174.76156 | 11543 ft | 348 kts | 355° |
| 2026-05-04 02:24 | -37.61681 | 174.75850 | 10989 ft | 347 kts | 355° |
| 2026-05-04 02:25 | -37.59293 | 174.75548 | 10672 ft | 339 kts | 355° |
| 2026-05-04 02:25 | -37.56989 | 174.75257 | 10546 ft | 326 kts | 355° |
| 2026-05-04 02:25 | -37.54768 | 174.74978 | 10425 ft | 315 kts | 356° |
| 2026-05-04 02:25 | -37.52622 | 174.74711 | 10295 ft | 304 kts | 356° |
| 2026-05-04 02:26 | -37.50550 | 174.74453 | 10146 ft | 296 kts | 356° |
| 2026-05-04 02:26 | -37.48522 | 174.74198 | 9980 ft | 289 kts | 356° |
| 2026-05-04 02:26 | -37.46512 | 174.73942 | 9716 ft | 293 kts | 356° |
| 2026-05-04 02:26 | -37.44516 | 174.73687 | 9259 ft | 289 kts | 356° |
| 2026-05-04 02:27 | -37.42521 | 174.73433 | 8764 ft | 285 kts | 356° |
| 2026-05-04 02:27 | -37.40561 | 174.73187 | 8311 ft | 283 kts | 356° |
| 2026-05-04 02:27 | -37.38603 | 174.72944 | 7852 ft | 281 kts | 356° |
| 2026-05-04 02:27 | -37.36638 | 174.72702 | 7431 ft | 285 kts | 356° |
| 2026-05-04 02:28 | -37.34675 | 174.72457 | 7181 ft | 281 kts | 356° |
| 2026-05-04 02:28 | -37.32736 | 174.72210 | 6603 ft | 279 kts | 356° |
| 2026-05-04 02:28 | -37.30810 | 174.71967 | 6034 ft | 277 kts | 356° |
| 2026-05-04 02:28 | -37.28914 | 174.71729 | 5584 ft | 270 kts | 356° |
| 2026-05-04 02:29 | -37.27084 | 174.71499 | 5134 ft | 265 kts | 356° |
| 2026-05-04 02:29 | -37.25270 | 174.71270 | 4714 ft | 258 kts | 356° |
| 2026-05-04 02:29 | -37.23511 | 174.71046 | 4307 ft | 251 kts | 356° |
| 2026-05-04 02:29 | -37.22206 | 174.70883 | 4004 ft | 246 kts | 355° |
| 2026-05-04 02:30 | -37.20513 | 174.70676 | 3607 ft | 240 kts | 355° |
| 2026-05-04 02:30 | -37.18890 | 174.70476 | 3406 ft | 225 kts | 355° |
| 2026-05-04 02:30 | -37.17401 | 174.70290 | 3324 ft | 205 kts | 355° |
| 2026-05-04 02:30 | -37.16046 | 174.70120 | 3258 ft | 187 kts | 356° |
| 2026-05-04 02:31 | -37.14822 | 174.69967 | 3181 ft | 166 kts | 356° |
| 2026-05-04 02:31 | -37.13734 | 174.69831 | 3130 ft | 150 kts | 356° |
| 2026-05-04 02:31 | -37.12723 | 174.69706 | 3041 ft | 143 kts | 356° |
| 2026-05-04 02:31 | -37.11746 | 174.69513 | 2944 ft | 143 kts | 349° |
| 2026-05-04 02:32 | -37.10785 | 174.69230 | 2661 ft | 141 kts | 350° |
| 2026-05-04 02:32 | -37.09844 | 174.68952 | 2484 ft | 140 kts | 349° |
| 2026-05-04 02:32 | -37.08889 | 174.68674 | 2319 ft | 141 kts | 350° |
| 2026-05-04 02:32 | -37.07931 | 174.68391 | 2131 ft | 142 kts | 349° |
| 2026-05-04 02:33 | -37.06968 | 174.68140 | 1883 ft | 141 kts | 356° |
| 2026-05-04 02:33 | -37.06003 | 174.68182 | 1721 ft | 137 kts | 13° |
| 2026-05-04 02:33 | -37.05090 | 174.68531 | 1583 ft | 137 kts | 27° |
| 2026-05-04 02:33 | -37.04296 | 174.69171 | 1394 ft | 136 kts | 44° |
| 2026-05-04 02:34 | -37.03665 | 174.70042 | 1213 ft | 134 kts | 57° |
| 2026-05-04 02:34 | -37.03242 | 174.71079 | 1038 ft | 134 kts | 71° |
| 2026-05-04 02:34 | -37.02953 | 174.72183 | 891 ft | 135 kts | 72° |
| 2026-05-04 02:34 | -37.02666 | 174.73293 | 705 ft | 136 kts | 72° |
| 2026-05-04 02:35 | -37.02367 | 174.74418 | 512 ft | 137 kts | 71° |
| 2026-05-04 02:35 | -37.02055 | 174.75541 | 301 ft | 136 kts | 69° |
| 2026-05-04 02:35 | -37.01751 | 174.76642 | 127 ft | 133 kts | 69° |
| 2026-05-04 02:35 | -37.01454 | 174.77695 | 29 ft | 114 kts | 72° |
| 2026-05-04 02:36 | -37.01294 | 174.78277 | 27 ft | 27 kts | 59° |
| 2026-05-04 02:36 | -37.01235 | 174.78370 | 29 ft | 17 kts | 50° |
| 2026-05-04 02:36 | -37.01140 | 174.78486 | 27 ft | 19 kts | 42° |
| 2026-05-04 02:36 | -37.01065 | 174.78572 | 29 ft | 15 kts | 45° |
| 2026-05-04 02:37 | -37.00996 | 174.78685 | 25 ft | 17 kts | 64° |
| 2026-05-04 02:37 | -37.00954 | 174.78838 | 25 ft | 20 kts | 70° |
| 2026-05-04 02:37 | -37.00908 | 174.79006 | 30 ft | 19 kts | 71° |
| 2026-05-04 02:37 | -37.00866 | 174.79106 | 25 ft | 11 kts | 37° |
| 2026-05-04 02:38 | -37.00807 | 174.79102 | 28 ft | 8 kts | 9° |
| 2026-05-04 02:38 | -37.00775 | 174.79162 | 29 ft | 6 kts | 70° |
| 2026-05-04 02:38 | -37.00739 | 174.79162 | 27 ft | 4 kts | 344° |
| 2026-05-04 02:38 | -37.00731 | 174.79159 | 25 ft | 2 kts | 340° |
| 2026-05-04 02:39 | -37.00711 | 174.79150 | 30 ft | 3 kts | 341° |
| 2026-05-04 02:39 | -37.00704 | 174.79147 | 29 ft | 0 kts | 341° |
| 2026-05-04 02:39 | -37.00700 | 174.79145 | 28 ft | 0 kts | 341° |